sensor_id;sensor_type;location;lat;lon;timestamp;temperature;humidity
820;DHT22;392;48.838;2.322;2023-04-06T00:01:08;13.80;8.60
820;DHT22;392;48.838;2.322;2023-04-06T00:03:35;13.80;8.80
820;DHT22;392;48.838;2.322;2023-04-06T00:06:03;13.80;9.00
820;DHT22;392;48.838;2.322;2023-04-06T00:08:31;13.80;9.00
820;DHT22;392;48.838;2.322;2023-04-06T00:10:58;13.70;9.10
820;DHT22;392;48.838;2.322;2023-04-06T00:13:26;13.70;9.40
820;DHT22;392;48.838;2.322;2023-04-06T00:15:53;13.70;9.70
820;DHT22;392;48.838;2.322;2023-04-06T00:18:22;13.70;9.80
820;DHT22;392;48.838;2.322;2023-04-06T00:20:49;13.60;10.60
820;DHT22;392;48.838;2.322;2023-04-06T00:23:17;13.60;10.30
820;DHT22;392;48.838;2.322;2023-04-06T00:25:44;13.60;10.40
820;DHT22;392;48.838;2.322;2023-04-06T00:28:11;13.50;10.70
820;DHT22;392;48.838;2.322;2023-04-06T00:30:40;13.50;11.00
820;DHT22;392;48.838;2.322;2023-04-06T00:33:08;13.50;11.00
820;DHT22;392;48.838;2.322;2023-04-06T00:35:36;13.50;11.10
820;DHT22;392;48.838;2.322;2023-04-06T00:38:04;13.50;11.00
820;DHT22;392;48.838;2.322;2023-04-06T00:40:31;13.50;11.40
820;DHT22;392;48.838;2.322;2023-04-06T00:43:00;13.50;11.50
820;DHT22;392;48.838;2.322;2023-04-06T00:45:28;13.50;11.70
820;DHT22;392;48.838;2.322;2023-04-06T00:47:56;13.40;11.90
820;DHT22;392;48.838;2.322;2023-04-06T00:50:24;13.40;12.00
820;DHT22;392;48.838;2.322;2023-04-06T00:52:54;13.40;12.20
820;DHT22;392;48.838;2.322;2023-04-06T00:55:26;13.30;12.20
820;DHT22;392;48.838;2.322;2023-04-06T00:57:54;13.30;12.30
820;DHT22;392;48.838;2.322;2023-04-06T01:00:21;13.30;12.50
820;DHT22;392;48.838;2.322;2023-04-06T01:02:54;13.40;12.70
820;DHT22;392;48.838;2.322;2023-04-06T01:05:26;13.40;12.80
820;DHT22;392;48.838;2.322;2023-04-06T01:07:58;13.40;12.80
820;DHT22;392;48.838;2.322;2023-04-06T01:10:28;13.40;12.80
820;DHT22;392;48.838;2.322;2023-04-06T01:13:02;13.40;12.80
820;DHT22;392;48.838;2.322;2023-04-06T01:15:48;13.40;12.90
820;DHT22;392;48.838;2.322;2023-04-06T01:18:25;13.40;13.00
820;DHT22;392;48.838;2.322;2023-04-06T01:21:00;13.30;13.10
820;DHT22;392;48.838;2.322;2023-04-06T01:23:30;13.30;13.30
820;DHT22;392;48.838;2.322;2023-04-06T01:25:57;13.30;13.60
820;DHT22;392;48.838;2.322;2023-04-06T01:28:25;13.20;13.80
820;DHT22;392;48.838;2.322;2023-04-06T01:31:06;13.20;13.90
820;DHT22;392;48.838;2.322;2023-04-06T01:33:48;13.20;14.30
820;DHT22;392;48.838;2.322;2023-04-06T01:36:19;13.10;14.10
820;DHT22;392;48.838;2.322;2023-04-06T01:38:54;13.00;14.30
820;DHT22;392;48.838;2.322;2023-04-06T01:41:29;13.00;14.90
820;DHT22;392;48.838;2.322;2023-04-06T01:43:57;13.00;14.50
820;DHT22;392;48.838;2.322;2023-04-06T01:46:27;13.00;14.50
820;DHT22;392;48.838;2.322;2023-04-06T01:48:55;13.00;14.60
820;DHT22;392;48.838;2.322;2023-04-06T01:51:31;13.00;14.70
820;DHT22;392;48.838;2.322;2023-04-06T01:54:02;13.00;14.90
820;DHT22;392;48.838;2.322;2023-04-06T01:56:48;13.00;14.90
820;DHT22;392;48.838;2.322;2023-04-06T01:59:31;13.00;14.90
820;DHT22;392;48.838;2.322;2023-04-06T02:02:02;13.00;14.90
820;DHT22;392;48.838;2.322;2023-04-06T02:04:30;13.10;15.00
820;DHT22;392;48.838;2.322;2023-04-06T02:07:07;13.10;15.00
820;DHT22;392;48.838;2.322;2023-04-06T02:09:36;13.00;15.10
820;DHT22;392;48.838;2.322;2023-04-06T02:12:06;13.00;15.30
820;DHT22;392;48.838;2.322;2023-04-06T02:14:34;12.90;15.50
820;DHT22;392;48.838;2.322;2023-04-06T02:17:01;12.90;15.60
820;DHT22;392;48.838;2.322;2023-04-06T02:19:29;12.90;15.60
820;DHT22;392;48.838;2.322;2023-04-06T02:21:56;12.90;15.70
820;DHT22;392;48.838;2.322;2023-04-06T02:24:23;12.80;15.80
820;DHT22;392;48.838;2.322;2023-04-06T02:26:52;12.80;15.90
820;DHT22;392;48.838;2.322;2023-04-06T02:29:20;12.80;15.90
820;DHT22;392;48.838;2.322;2023-04-06T02:31:48;12.80;15.90
820;DHT22;392;48.838;2.322;2023-04-06T02:34:16;12.80;15.80
820;DHT22;392;48.838;2.322;2023-04-06T02:36:47;12.80;15.70
820;DHT22;392;48.838;2.322;2023-04-06T02:39:15;12.80;15.80
820;DHT22;392;48.838;2.322;2023-04-06T02:41:42;12.80;15.70
820;DHT22;392;48.838;2.322;2023-04-06T02:44:13;12.80;15.80
820;DHT22;392;48.838;2.322;2023-04-06T02:46:42;12.80;16.00
820;DHT22;392;48.838;2.322;2023-04-06T02:49:10;12.70;16.10
820;DHT22;392;48.838;2.322;2023-04-06T02:51:37;12.70;15.90
820;DHT22;392;48.838;2.322;2023-04-06T02:54:27;12.70;15.90
820;DHT22;392;48.838;2.322;2023-04-06T02:56:55;12.70;15.90
820;DHT22;392;48.838;2.322;2023-04-06T02:59:30;12.70;15.90
820;DHT22;392;48.838;2.322;2023-04-06T03:02:06;12.80;15.70
820;DHT22;392;48.838;2.322;2023-04-06T03:04:34;12.80;15.70
820;DHT22;392;48.838;2.322;2023-04-06T03:07:04;12.80;15.90
820;DHT22;392;48.838;2.322;2023-04-06T03:09:37;12.80;16.00
820;DHT22;392;48.838;2.322;2023-04-06T03:12:05;12.80;16.00
820;DHT22;392;48.838;2.322;2023-04-06T03:14:44;12.70;16.00
820;DHT22;392;48.838;2.322;2023-04-06T03:17:11;12.70;16.10
820;DHT22;392;48.838;2.322;2023-04-06T03:19:39;12.70;15.90
820;DHT22;392;48.838;2.322;2023-04-06T03:22:08;12.70;15.90
820;DHT22;392;48.838;2.322;2023-04-06T03:24:36;12.70;15.80
820;DHT22;392;48.838;2.322;2023-04-06T03:27:04;12.70;15.80
820;DHT22;392;48.838;2.322;2023-04-06T03:29:33;12.70;15.80
820;DHT22;392;48.838;2.322;2023-04-06T03:32:03;12.70;15.70
820;DHT22;392;48.838;2.322;2023-04-06T03:34:38;12.70;15.80
820;DHT22;392;48.838;2.322;2023-04-06T03:37:05;12.70;15.90
820;DHT22;392;48.838;2.322;2023-04-06T03:39:34;12.70;16.10
820;DHT22;392;48.838;2.322;2023-04-06T03:42:03;12.70;16.20
820;DHT22;392;48.838;2.322;2023-04-06T03:44:36;12.70;16.20
820;DHT22;392;48.838;2.322;2023-04-06T03:47:06;12.70;16.20
820;DHT22;392;48.838;2.322;2023-04-06T03:49:34;12.70;16.10
820;DHT22;392;48.838;2.322;2023-04-06T03:52:01;12.70;15.90
820;DHT22;392;48.838;2.322;2023-04-06T03:54:29;12.80;15.90
820;DHT22;392;48.838;2.322;2023-04-06T03:56:56;12.70;15.70
820;DHT22;392;48.838;2.322;2023-04-06T03:59:26;12.70;16.10
820;DHT22;392;48.838;2.322;2023-04-06T04:01:53;12.80;15.50
820;DHT22;392;48.838;2.322;2023-04-06T04:04:22;12.70;15.00
820;DHT22;392;48.838;2.322;2023-04-06T04:06:50;12.70;15.00
820;DHT22;392;48.838;2.322;2023-04-06T04:09:18;12.70;14.90
820;DHT22;392;48.838;2.322;2023-04-06T04:11:45;12.70;14.80
820;DHT22;392;48.838;2.322;2023-04-06T04:14:12;12.70;15.30
820;DHT22;392;48.838;2.322;2023-04-06T04:16:40;12.70;14.70
820;DHT22;392;48.838;2.322;2023-04-06T04:19:07;12.70;15.00
820;DHT22;392;48.838;2.322;2023-04-06T04:21:42;12.70;15.20
820;DHT22;392;48.838;2.322;2023-04-06T04:24:13;12.70;15.40
820;DHT22;392;48.838;2.322;2023-04-06T04:26:41;12.70;15.60
820;DHT22;392;48.838;2.322;2023-04-06T04:29:08;12.70;15.60
820;DHT22;392;48.838;2.322;2023-04-06T04:31:37;12.70;15.60
820;DHT22;392;48.838;2.322;2023-04-06T04:34:11;12.70;15.60
820;DHT22;392;48.838;2.322;2023-04-06T04:36:42;12.60;16.40
820;DHT22;392;48.838;2.322;2023-04-06T04:39:13;12.60;15.90
820;DHT22;392;48.838;2.322;2023-04-06T04:41:44;12.60;16.10
820;DHT22;392;48.838;2.322;2023-04-06T04:44:12;12.60;16.10
820;DHT22;392;48.838;2.322;2023-04-06T04:46:41;12.60;16.00
820;DHT22;392;48.838;2.322;2023-04-06T04:49:10;12.60;16.00
820;DHT22;392;48.838;2.322;2023-04-06T04:51:37;12.60;16.10
820;DHT22;392;48.838;2.322;2023-04-06T04:54:13;12.70;15.90
820;DHT22;392;48.838;2.322;2023-04-06T04:56:42;12.60;15.80
820;DHT22;392;48.838;2.322;2023-04-06T04:59:33;12.60;16.00
820;DHT22;392;48.838;2.322;2023-04-06T05:02:09;12.70;16.50
820;DHT22;392;48.838;2.322;2023-04-06T05:04:46;12.60;16.60
820;DHT22;392;48.838;2.322;2023-04-06T05:07:19;12.50;16.90
820;DHT22;392;48.838;2.322;2023-04-06T05:09:48;12.40;17.10
820;DHT22;392;48.838;2.322;2023-04-06T05:12:18;12.30;17.20
820;DHT22;392;48.838;2.322;2023-04-06T05:14:59;12.30;17.20
820;DHT22;392;48.838;2.322;2023-04-06T05:17:27;12.30;17.10
820;DHT22;392;48.838;2.322;2023-04-06T05:19:55;12.30;17.00
820;DHT22;392;48.838;2.322;2023-04-06T05:22:24;12.30;16.90
820;DHT22;392;48.838;2.322;2023-04-06T05:25:22;12.30;16.90
820;DHT22;392;48.838;2.322;2023-04-06T05:27:53;12.40;17.00
820;DHT22;392;48.838;2.322;2023-04-06T05:30:28;12.40;17.20
820;DHT22;392;48.838;2.322;2023-04-06T05:32:56;12.40;17.20
820;DHT22;392;48.838;2.322;2023-04-06T05:35:26;12.40;17.20
820;DHT22;392;48.838;2.322;2023-04-06T05:37:59;12.30;17.40
820;DHT22;392;48.838;2.322;2023-04-06T05:40:28;12.30;17.80
820;DHT22;392;48.838;2.322;2023-04-06T05:42:56;12.30;17.80
820;DHT22;392;48.838;2.322;2023-04-06T05:45:23;12.30;18.20
820;DHT22;392;48.838;2.322;2023-04-06T05:47:55;12.20;18.50
820;DHT22;392;48.838;2.322;2023-04-06T05:50:26;12.10;18.40
820;DHT22;392;48.838;2.322;2023-04-06T05:52:53;12.00;18.90
820;DHT22;392;48.838;2.322;2023-04-06T05:55:23;12.00;18.80
820;DHT22;392;48.838;2.322;2023-04-06T05:58:04;11.90;18.70
820;DHT22;392;48.838;2.322;2023-04-06T06:00:31;11.90;19.30
820;DHT22;392;48.838;2.322;2023-04-06T06:03:04;11.90;19.50
820;DHT22;392;48.838;2.322;2023-04-06T06:05:33;12.00;19.80
820;DHT22;392;48.838;2.322;2023-04-06T06:08:07;12.10;20.20
820;DHT22;392;48.838;2.322;2023-04-06T06:10:38;12.10;20.50
820;DHT22;392;48.838;2.322;2023-04-06T06:13:09;12.00;20.80
820;DHT22;392;48.838;2.322;2023-04-06T06:15:36;12.00;22.20
820;DHT22;392;48.838;2.322;2023-04-06T06:18:04;12.00;23.90
820;DHT22;392;48.838;2.322;2023-04-06T06:20:32;12.00;23.10
820;DHT22;392;48.838;2.322;2023-04-06T06:23:03;11.90;22.70
820;DHT22;392;48.838;2.322;2023-04-06T06:25:31;11.90;23.20
820;DHT22;392;48.838;2.322;2023-04-06T06:27:59;12.00;23.00
820;DHT22;392;48.838;2.322;2023-04-06T06:30:30;12.10;23.90
820;DHT22;392;48.838;2.322;2023-04-06T06:32:59;12.10;23.60
820;DHT22;392;48.838;2.322;2023-04-06T06:35:28;12.00;23.30
820;DHT22;392;48.838;2.322;2023-04-06T06:37:55;12.00;23.20
820;DHT22;392;48.838;2.322;2023-04-06T06:40:26;12.00;24.70
820;DHT22;392;48.838;2.322;2023-04-06T06:42:54;12.10;24.60
820;DHT22;392;48.838;2.322;2023-04-06T06:45:34;12.10;24.10
820;DHT22;392;48.838;2.322;2023-04-06T06:48:02;12.10;24.20
820;DHT22;392;48.838;2.322;2023-04-06T06:50:29;12.00;25.00
820;DHT22;392;48.838;2.322;2023-04-06T06:52:57;12.00;24.90
820;DHT22;392;48.838;2.322;2023-04-06T06:55:24;12.00;24.90
820;DHT22;392;48.838;2.322;2023-04-06T06:57:52;12.00;24.40
820;DHT22;392;48.838;2.322;2023-04-06T07:00:20;11.90;24.80
820;DHT22;392;48.838;2.322;2023-04-06T07:02:50;11.80;24.40
820;DHT22;392;48.838;2.322;2023-04-06T07:05:17;11.80;24.70
820;DHT22;392;48.838;2.322;2023-04-06T07:07:45;11.80;25.00
820;DHT22;392;48.838;2.322;2023-04-06T07:10:12;11.90;25.30
820;DHT22;392;48.838;2.322;2023-04-06T07:12:39;11.80;25.80
820;DHT22;392;48.838;2.322;2023-04-06T07:15:08;11.80;25.90
820;DHT22;392;48.838;2.322;2023-04-06T07:17:36;11.70;26.00
820;DHT22;392;48.838;2.322;2023-04-06T07:20:05;11.70;26.40
820;DHT22;392;48.838;2.322;2023-04-06T07:22:33;11.60;26.50
820;DHT22;392;48.838;2.322;2023-04-06T07:25:00;11.60;27.30
820;DHT22;392;48.838;2.322;2023-04-06T07:27:27;11.60;27.20
820;DHT22;392;48.838;2.322;2023-04-06T07:29:55;11.60;27.40
820;DHT22;392;48.838;2.322;2023-04-06T07:32:23;11.60;27.70
820;DHT22;392;48.838;2.322;2023-04-06T07:34:51;11.60;28.10
820;DHT22;392;48.838;2.322;2023-04-06T07:37:20;11.60;28.70
820;DHT22;392;48.838;2.322;2023-04-06T07:39:47;11.60;29.10
820;DHT22;392;48.838;2.322;2023-04-06T07:42:15;11.60;29.90
820;DHT22;392;48.838;2.322;2023-04-06T07:44:43;11.50;30.70
820;DHT22;392;48.838;2.322;2023-04-06T07:47:11;11.60;32.20
820;DHT22;392;48.838;2.322;2023-04-06T07:49:38;11.50;34.00
820;DHT22;392;48.838;2.322;2023-04-06T07:52:06;11.40;35.10
820;DHT22;392;48.838;2.322;2023-04-06T07:54:35;11.40;36.20
820;DHT22;392;48.838;2.322;2023-04-06T07:57:02;11.40;37.40
820;DHT22;392;48.838;2.322;2023-04-06T07:59:30;11.40;38.70
820;DHT22;392;48.838;2.322;2023-04-06T08:01:57;11.40;40.30
820;DHT22;392;48.838;2.322;2023-04-06T08:04:25;11.40;40.30
820;DHT22;392;48.838;2.322;2023-04-06T08:06:52;11.40;40.30
820;DHT22;392;48.838;2.322;2023-04-06T08:09:20;11.50;39.90
820;DHT22;392;48.838;2.322;2023-04-06T08:11:48;11.60;40.50
820;DHT22;392;48.838;2.322;2023-04-06T08:14:16;11.70;41.20
820;DHT22;392;48.838;2.322;2023-04-06T08:16:43;11.90;40.10
820;DHT22;392;48.838;2.322;2023-04-06T08:19:11;12.10;39.20
820;DHT22;392;48.838;2.322;2023-04-06T08:21:38;12.20;38.20
820;DHT22;392;48.838;2.322;2023-04-06T08:24:06;12.40;38.80
820;DHT22;392;48.838;2.322;2023-04-06T08:26:34;12.70;37.40
820;DHT22;392;48.838;2.322;2023-04-06T08:29:03;13.10;35.00
820;DHT22;392;48.838;2.322;2023-04-06T08:31:33;13.30;32.20
820;DHT22;392;48.838;2.322;2023-04-06T08:34:00;13.40;32.00
820;DHT22;392;48.838;2.322;2023-04-06T08:36:28;13.40;31.90
820;DHT22;392;48.838;2.322;2023-04-06T08:38:55;13.50;32.00
820;DHT22;392;48.838;2.322;2023-04-06T08:41:23;13.40;31.90
820;DHT22;392;48.838;2.322;2023-04-06T08:43:56;13.40;31.90
820;DHT22;392;48.838;2.322;2023-04-06T08:46:25;13.30;32.80
820;DHT22;392;48.838;2.322;2023-04-06T08:48:56;13.20;32.80
820;DHT22;392;48.838;2.322;2023-04-06T08:51:25;13.10;33.30
820;DHT22;392;48.838;2.322;2023-04-06T08:53:53;13.00;33.60
820;DHT22;392;48.838;2.322;2023-04-06T08:56:21;12.80;34.50
820;DHT22;392;48.838;2.322;2023-04-06T08:58:49;12.80;34.80
820;DHT22;392;48.838;2.322;2023-04-06T09:01:21;12.70;35.20
820;DHT22;392;48.838;2.322;2023-04-06T09:03:55;12.60;36.30
820;DHT22;392;48.838;2.322;2023-04-06T09:06:24;12.50;37.40
820;DHT22;392;48.838;2.322;2023-04-06T09:08:53;12.50;38.00
820;DHT22;392;48.838;2.322;2023-04-06T09:11:22;12.40;38.40
820;DHT22;392;48.838;2.322;2023-04-06T09:13:51;12.30;38.90
820;DHT22;392;48.838;2.322;2023-04-06T09:16:21;12.30;40.00
820;DHT22;392;48.838;2.322;2023-04-06T09:18:49;12.20;40.40
820;DHT22;392;48.838;2.322;2023-04-06T09:21:20;12.20;40.50
820;DHT22;392;48.838;2.322;2023-04-06T09:23:57;12.20;41.00
820;DHT22;392;48.838;2.322;2023-04-06T09:26:25;12.10;42.50
820;DHT22;392;48.838;2.322;2023-04-06T09:28:54;12.10;43.60
820;DHT22;392;48.838;2.322;2023-04-06T09:31:23;12.00;44.70
820;DHT22;392;48.838;2.322;2023-04-06T09:33:52;11.90;44.80
820;DHT22;392;48.838;2.322;2023-04-06T09:36:29;11.90;45.70
820;DHT22;392;48.838;2.322;2023-04-06T09:38:58;11.80;46.40
820;DHT22;392;48.838;2.322;2023-04-06T09:41:27;11.80;46.70
820;DHT22;392;48.838;2.322;2023-04-06T09:44:03;11.80;47.30
820;DHT22;392;48.838;2.322;2023-04-06T09:46:32;11.80;47.30
820;DHT22;392;48.838;2.322;2023-04-06T09:49:02;11.90;47.20
820;DHT22;392;48.838;2.322;2023-04-06T09:51:36;11.90;46.90
820;DHT22;392;48.838;2.322;2023-04-06T09:54:05;11.90;46.80
820;DHT22;392;48.838;2.322;2023-04-06T09:56:39;12.10;47.50
820;DHT22;392;48.838;2.322;2023-04-06T09:59:14;12.10;46.70
820;DHT22;392;48.838;2.322;2023-04-06T10:01:48;12.00;47.00
820;DHT22;392;48.838;2.322;2023-04-06T10:04:25;12.00;47.90
820;DHT22;392;48.838;2.322;2023-04-06T10:06:59;11.90;48.00
820;DHT22;392;48.838;2.322;2023-04-06T10:09:29;12.00;48.20
820;DHT22;392;48.838;2.322;2023-04-06T10:12:02;11.90;48.00
820;DHT22;392;48.838;2.322;2023-04-06T10:14:32;11.90;48.10
820;DHT22;392;48.838;2.322;2023-04-06T10:17:02;12.00;49.30
820;DHT22;392;48.838;2.322;2023-04-06T10:19:36;12.00;48.70
820;DHT22;392;48.838;2.322;2023-04-06T10:22:12;12.00;48.70
820;DHT22;392;48.838;2.322;2023-04-06T10:24:42;12.00;48.90
820;DHT22;392;48.838;2.322;2023-04-06T10:27:10;12.10;49.00
820;DHT22;392;48.838;2.322;2023-04-06T10:29:47;12.10;48.30
820;DHT22;392;48.838;2.322;2023-04-06T10:32:15;12.20;48.80
820;DHT22;392;48.838;2.322;2023-04-06T10:34:43;12.10;48.60
820;DHT22;392;48.838;2.322;2023-04-06T10:37:15;12.20;48.40
820;DHT22;392;48.838;2.322;2023-04-06T10:39:51;12.20;48.30
820;DHT22;392;48.838;2.322;2023-04-06T10:42:24;12.30;48.20
820;DHT22;392;48.838;2.322;2023-04-06T10:44:52;12.40;48.50
820;DHT22;392;48.838;2.322;2023-04-06T10:47:19;12.50;47.60
820;DHT22;392;48.838;2.322;2023-04-06T10:49:46;12.50;47.30
820;DHT22;392;48.838;2.322;2023-04-06T10:52:15;12.50;47.60
820;DHT22;392;48.838;2.322;2023-04-06T10:54:43;12.70;47.50
820;DHT22;392;48.838;2.322;2023-04-06T10:57:10;12.80;46.50
820;DHT22;392;48.838;2.322;2023-04-06T10:59:42;12.90;45.30
820;DHT22;392;48.838;2.322;2023-04-06T11:02:19;13.20;46.90
820;DHT22;392;48.838;2.322;2023-04-06T11:04:55;14.00;41.90
820;DHT22;392;48.838;2.322;2023-04-06T11:07:24;14.50;36.70
820;DHT22;392;48.838;2.322;2023-04-06T11:09:52;14.50;35.00
820;DHT22;392;48.838;2.322;2023-04-06T11:12:23;14.40;34.60
820;DHT22;392;48.838;2.322;2023-04-06T11:14:56;14.10;35.00
820;DHT22;392;48.838;2.322;2023-04-06T11:17:28;14.00;36.00
820;DHT22;392;48.838;2.322;2023-04-06T11:19:56;13.80;36.50
820;DHT22;392;48.838;2.322;2023-04-06T11:22:25;13.80;37.40
820;DHT22;392;48.838;2.322;2023-04-06T11:25:04;14.30;36.30
820;DHT22;392;48.838;2.322;2023-04-06T11:27:32;15.10;34.20
820;DHT22;392;48.838;2.322;2023-04-06T11:29:59;16.20;28.50
820;DHT22;392;48.838;2.322;2023-04-06T11:32:27;17.40;25.70
820;DHT22;392;48.838;2.322;2023-04-06T11:34:58;18.00;23.70
820;DHT22;392;48.838;2.322;2023-04-06T11:37:27;18.90;22.30
820;DHT22;392;48.838;2.322;2023-04-06T11:39:55;19.70;20.20
820;DHT22;392;48.838;2.322;2023-04-06T11:42:23;20.60;17.50
820;DHT22;392;48.838;2.322;2023-04-06T11:44:53;21.30;16.50
820;DHT22;392;48.838;2.322;2023-04-06T11:47:27;22.10;14.50
820;DHT22;392;48.838;2.322;2023-04-06T11:49:56;22.50;14.20
820;DHT22;392;48.838;2.322;2023-04-06T11:52:34;22.80;13.30
820;DHT22;392;48.838;2.322;2023-04-06T11:55:11;23.10;12.40
820;DHT22;392;48.838;2.322;2023-04-06T11:57:41;23.00;11.90
820;DHT22;392;48.838;2.322;2023-04-06T12:00:10;22.50;12.40
820;DHT22;392;48.838;2.322;2023-04-06T12:02:38;21.40;13.50
820;DHT22;392;48.838;2.322;2023-04-06T12:05:07;20.30;15.70
820;DHT22;392;48.838;2.322;2023-04-06T12:07:36;19.50;16.50
820;DHT22;392;48.838;2.322;2023-04-06T12:10:04;18.90;17.00
820;DHT22;392;48.838;2.322;2023-04-06T12:12:32;18.20;17.60
820;DHT22;392;48.838;2.322;2023-04-06T12:14:59;17.60;18.80
820;DHT22;392;48.838;2.322;2023-04-06T12:17:27;17.60;19.90
820;DHT22;392;48.838;2.322;2023-04-06T12:19:54;18.30;18.60
820;DHT22;392;48.838;2.322;2023-04-06T12:22:21;19.20;17.30
820;DHT22;392;48.838;2.322;2023-04-06T12:24:50;19.80;16.10
820;DHT22;392;48.838;2.322;2023-04-06T12:27:17;19.80;15.70
820;DHT22;392;48.838;2.322;2023-04-06T12:29:44;19.70;15.50
820;DHT22;392;48.838;2.322;2023-04-06T12:32:12;19.40;16.30
820;DHT22;392;48.838;2.322;2023-04-06T12:34:39;19.00;16.60
820;DHT22;392;48.838;2.322;2023-04-06T12:37:06;18.60;17.20
820;DHT22;392;48.838;2.322;2023-04-06T12:39:34;18.20;17.40
820;DHT22;392;48.838;2.322;2023-04-06T12:42:03;17.70;17.70
820;DHT22;392;48.838;2.322;2023-04-06T12:44:30;17.40;18.30
820;DHT22;392;48.838;2.322;2023-04-06T12:46:57;17.00;18.80
820;DHT22;392;48.838;2.322;2023-04-06T12:49:26;16.80;19.20
820;DHT22;392;48.838;2.322;2023-04-06T12:51:53;16.60;19.60
820;DHT22;392;48.838;2.322;2023-04-06T12:54:21;16.50;20.20
820;DHT22;392;48.838;2.322;2023-04-06T12:56:48;16.30;20.30
820;DHT22;392;48.838;2.322;2023-04-06T12:59:17;16.30;20.60
820;DHT22;392;48.838;2.322;2023-04-06T13:01:46;16.60;21.10
820;DHT22;392;48.838;2.322;2023-04-06T13:04:14;17.20;19.70
820;DHT22;392;48.838;2.322;2023-04-06T13:06:41;17.60;18.20
820;DHT22;392;48.838;2.322;2023-04-06T13:09:08;17.90;18.30
820;DHT22;392;48.838;2.322;2023-04-06T13:11:36;18.10;17.70
820;DHT22;392;48.838;2.322;2023-04-06T13:14:03;18.50;16.90
820;DHT22;392;48.838;2.322;2023-04-06T13:16:32;18.90;15.70
820;DHT22;392;48.838;2.322;2023-04-06T13:18:59;19.10;15.00
820;DHT22;392;48.838;2.322;2023-04-06T13:21:27;19.00;14.90
820;DHT22;392;48.838;2.322;2023-04-06T13:23:54;18.60;14.40
820;DHT22;392;48.838;2.322;2023-04-06T13:26:21;18.20;15.00
820;DHT22;392;48.838;2.322;2023-04-06T13:28:49;17.90;15.90
820;DHT22;392;48.838;2.322;2023-04-06T13:31:16;17.60;16.60
820;DHT22;392;48.838;2.322;2023-04-06T13:33:45;17.40;17.50
820;DHT22;392;48.838;2.322;2023-04-06T13:36:12;17.50;17.80
820;DHT22;392;48.838;2.322;2023-04-06T13:38:40;17.70;17.30
820;DHT22;392;48.838;2.322;2023-04-06T13:41:07;18.10;17.20
820;DHT22;392;48.838;2.322;2023-04-06T13:43:35;18.50;16.70
820;DHT22;392;48.838;2.322;2023-04-06T13:46:02;19.00;15.70
820;DHT22;392;48.838;2.322;2023-04-06T13:48:30;19.00;15.80
820;DHT22;392;48.838;2.322;2023-04-06T13:51:07;19.00;15.90
820;DHT22;392;48.838;2.322;2023-04-06T13:53:35;18.70;15.20
820;DHT22;392;48.838;2.322;2023-04-06T13:56:03;18.50;16.10
820;DHT22;392;48.838;2.322;2023-04-06T13:58:30;18.50;16.50
820;DHT22;392;48.838;2.322;2023-04-06T14:01:02;18.50;15.80
820;DHT22;392;48.838;2.322;2023-04-06T14:03:30;18.30;15.60
820;DHT22;392;48.838;2.322;2023-04-06T14:05:59;18.20;16.10
820;DHT22;392;48.838;2.322;2023-04-06T14:08:26;18.10;16.00
820;DHT22;392;48.838;2.322;2023-04-06T14:10:53;17.90;15.40
820;DHT22;392;48.838;2.322;2023-04-06T14:13:21;17.60;15.40
820;DHT22;392;48.838;2.322;2023-04-06T14:15:53;17.40;15.80
820;DHT22;392;48.838;2.322;2023-04-06T14:18:21;17.30;15.70
820;DHT22;392;48.838;2.322;2023-04-06T14:20:54;17.30;15.80
820;DHT22;392;48.838;2.322;2023-04-06T14:23:23;17.30;16.10
820;DHT22;392;48.838;2.322;2023-04-06T14:25:52;17.30;16.20
820;DHT22;392;48.838;2.322;2023-04-06T14:28:31;17.30;16.10
820;DHT22;392;48.838;2.322;2023-04-06T14:30:59;17.40;15.90
820;DHT22;392;48.838;2.322;2023-04-06T14:33:26;17.40;15.00
820;DHT22;392;48.838;2.322;2023-04-06T14:35:54;17.50;15.10
820;DHT22;392;48.838;2.322;2023-04-06T14:38:23;17.60;15.00
820;DHT22;392;48.838;2.322;2023-04-06T14:40:50;17.60;15.20
820;DHT22;392;48.838;2.322;2023-04-06T14:43:17;17.40;15.30
820;DHT22;392;48.838;2.322;2023-04-06T14:45:44;17.20;15.60
820;DHT22;392;48.838;2.322;2023-04-06T14:48:12;17.20;15.80
820;DHT22;392;48.838;2.322;2023-04-06T14:50:41;17.10;16.00
820;DHT22;392;48.838;2.322;2023-04-06T14:53:12;17.10;16.30
820;DHT22;392;48.838;2.322;2023-04-06T14:55:40;17.10;16.30
820;DHT22;392;48.838;2.322;2023-04-06T14:58:08;17.10;16.20
820;DHT22;392;48.838;2.322;2023-04-06T15:00:37;17.20;16.60
820;DHT22;392;48.838;2.322;2023-04-06T15:03:05;17.20;16.20
820;DHT22;392;48.838;2.322;2023-04-06T15:05:33;17.20;16.60
820;DHT22;392;48.838;2.322;2023-04-06T15:08:01;17.20;16.90
820;DHT22;392;48.838;2.322;2023-04-06T15:10:31;17.20;16.90
820;DHT22;392;48.838;2.322;2023-04-06T15:12:59;17.20;17.00
820;DHT22;392;48.838;2.322;2023-04-06T15:15:27;17.30;16.70
820;DHT22;392;48.838;2.322;2023-04-06T15:17:55;17.30;16.30
820;DHT22;392;48.838;2.322;2023-04-06T15:20:22;17.20;16.80
820;DHT22;392;48.838;2.322;2023-04-06T15:22:49;17.00;16.10
820;DHT22;392;48.838;2.322;2023-04-06T15:25:16;16.90;16.60
820;DHT22;392;48.838;2.322;2023-04-06T15:27:44;16.80;16.60
820;DHT22;392;48.838;2.322;2023-04-06T15:30:13;16.80;17.20
820;DHT22;392;48.838;2.322;2023-04-06T15:32:51;16.80;17.50
820;DHT22;392;48.838;2.322;2023-04-06T15:35:19;16.70;17.50
820;DHT22;392;48.838;2.322;2023-04-06T15:37:47;16.60;17.50
820;DHT22;392;48.838;2.322;2023-04-06T15:40:15;16.60;17.50
820;DHT22;392;48.838;2.322;2023-04-06T15:42:42;16.60;17.00
820;DHT22;392;48.838;2.322;2023-04-06T15:45:10;16.70;17.10
820;DHT22;392;48.838;2.322;2023-04-06T15:47:40;16.70;16.70
820;DHT22;392;48.838;2.322;2023-04-06T15:50:11;16.70;16.90
820;DHT22;392;48.838;2.322;2023-04-06T15:52:39;16.80;16.50
820;DHT22;392;48.838;2.322;2023-04-06T15:55:07;16.80;16.50
820;DHT22;392;48.838;2.322;2023-04-06T15:57:35;16.80;16.10
820;DHT22;392;48.838;2.322;2023-04-06T16:00:03;16.70;16.20
820;DHT22;392;48.838;2.322;2023-04-06T16:02:35;16.70;16.30
820;DHT22;392;48.838;2.322;2023-04-06T16:05:04;16.70;16.40
820;DHT22;392;48.838;2.322;2023-04-06T16:07:31;16.60;16.20
820;DHT22;392;48.838;2.322;2023-04-06T16:10:00;16.50;16.50
820;DHT22;392;48.838;2.322;2023-04-06T16:12:29;16.50;17.00
820;DHT22;392;48.838;2.322;2023-04-06T16:14:57;16.40;17.30
820;DHT22;392;48.838;2.322;2023-04-06T16:17:25;16.40;17.50
820;DHT22;392;48.838;2.322;2023-04-06T16:19:52;16.40;17.80
820;DHT22;392;48.838;2.322;2023-04-06T16:22:21;16.40;18.00
820;DHT22;392;48.838;2.322;2023-04-06T16:24:48;16.40;18.00
820;DHT22;392;48.838;2.322;2023-04-06T16:27:15;16.40;18.20
820;DHT22;392;48.838;2.322;2023-04-06T16:29:42;16.30;18.50
820;DHT22;392;48.838;2.322;2023-04-06T16:32:10;16.30;18.70
820;DHT22;392;48.838;2.322;2023-04-06T16:34:38;16.30;18.60
820;DHT22;392;48.838;2.322;2023-04-06T16:37:05;16.30;18.70
820;DHT22;392;48.838;2.322;2023-04-06T16:39:33;16.30;18.80
820;DHT22;392;48.838;2.322;2023-04-06T16:42:01;16.30;18.50
820;DHT22;392;48.838;2.322;2023-04-06T16:44:28;16.40;18.80
820;DHT22;392;48.838;2.322;2023-04-06T16:46:55;16.40;18.20
820;DHT22;392;48.838;2.322;2023-04-06T16:49:23;16.50;18.30